createdAt,value
2016-08-02T00:00:43.589Z,0
2016-08-02T00:01:42.791Z,0
2016-08-02T00:02:42.811Z,0
2016-08-02T00:03:43.475Z,0
2016-08-02T00:04:43.453Z,0
2016-08-02T00:05:43.435Z,0
2016-08-02T00:06:43.413Z,0
2016-08-02T00:07:43.410Z,0
2016-08-02T00:08:41.558Z,0
2016-08-02T00:09:43.388Z,0
2016-08-02T00:10:41.951Z,0
2016-08-02T00:11:41.980Z,0
2016-08-02T00:12:43.348Z,0
2016-08-02T00:13:43.311Z,0
2016-08-02T00:14:43.297Z,0
2016-08-02T00:15:43.296Z,0
2016-08-02T00:16:43.271Z,0
2016-08-02T00:17:42.549Z,0
2016-08-02T00:18:43.295Z,0
2016-08-02T00:19:42.543Z,0
2016-08-02T00:20:41.790Z,0
2016-08-02T00:21:42.561Z,0
2016-08-02T00:22:42.470Z,0
2016-08-02T00:24:41.721Z,0
2016-08-02T00:25:43.157Z,0
2016-08-02T00:26:43.178Z,0
2016-08-02T00:27:43.130Z,0
2016-08-02T00:28:43.108Z,0
2016-08-02T00:29:41.661Z,0
2016-08-02T00:30:43.088Z,0
2016-08-02T00:31:42.367Z,0
2016-08-02T00:32:43.060Z,0
2016-08-02T00:33:41.600Z,0
2016-08-02T00:34:42.311Z,0
2016-08-02T00:35:43.020Z,0
2016-08-02T00:36:41.556Z,0
2016-08-02T00:37:42.979Z,0
2016-08-02T00:39:42.217Z,0
2016-08-02T00:40:42.940Z,0
2016-08-02T00:41:42.198Z,0
2016-08-02T00:42:42.198Z,0
2016-08-02T00:43:42.901Z,0
2016-08-02T00:44:42.899Z,0
2016-08-02T00:45:42.867Z,0
2016-08-02T00:46:42.839Z,0
2016-08-02T00:47:42.838Z,0
2016-08-02T00:48:42.103Z,0
2016-08-02T00:49:42.807Z,0
2016-08-02T00:50:42.079Z,0
2016-08-02T00:51:42.789Z,0
2016-08-02T00:52:42.060Z,0
2016-08-02T00:53:42.038Z,0
2016-08-02T00:54:42.018Z,0
2016-08-02T00:55:42.712Z,0
2016-08-02T00:56:42.708Z,0
2016-08-02T00:57:41.247Z,0
2016-08-02T00:58:41.970Z,0
2016-08-02T00:59:42.669Z,0
2016-08-02T01:00:42.641Z,0
2016-08-02T01:01:41.926Z,0
2016-08-02T01:02:42.626Z,0
2016-08-02T01:03:42.609Z,0
2016-08-02T01:04:41.869Z,0
2016-08-02T01:05:41.870Z,0
2016-08-02T01:06:42.569Z,0
2016-08-02T01:07:41.839Z,0
2016-08-02T01:08:42.556Z,0
2016-08-02T01:09:42.560Z,0
2016-08-02T01:10:42.504Z,0
2016-08-02T01:11:42.570Z,0
2016-08-02T01:12:41.763Z,0
2016-08-02T01:13:42.479Z,0
2016-08-02T01:14:42.447Z,0
2016-08-02T01:15:42.447Z,0
2016-08-02T01:16:42.413Z,0
2016-08-02T01:17:41.695Z,0
2016-08-02T01:18:42.420Z,0
2016-08-02T01:19:42.405Z,0
2016-08-02T01:20:42.369Z,0
2016-08-02T01:21:41.721Z,0
2016-08-02T01:22:42.341Z,0
2016-08-02T01:23:41.610Z,0
2016-08-02T01:24:42.320Z,0
2016-08-02T01:25:41.594Z,0
2016-08-02T01:26:42.274Z,0
2016-08-02T01:27:40.877Z,0
2016-08-02T01:28:41.529Z,0
2016-08-02T01:29:42.253Z,0
2016-08-02T01:30:42.239Z,0
2016-08-02T01:31:41.507Z,0
2016-08-02T01:32:42.182Z,0
2016-08-02T01:33:42.190Z,0
2016-08-02T01:34:40.167Z,0
2016-08-02T01:35:40.717Z,0
2016-08-02T01:36:42.138Z,0
2016-08-02T01:37:42.129Z,0
2016-08-02T01:38:42.098Z,0
2016-08-02T01:39:41.381Z,0
2016-08-02T01:40:42.081Z,0
2016-08-02T01:41:41.340Z,0
2016-08-02T01:42:41.340Z,0
2016-08-02T01:43:42.039Z,0
2016-08-02T01:44:42.015Z,0
2016-08-02T01:45:42.000Z,0
2016-08-02T01:46:41.996Z,0
2016-08-02T01:47:41.269Z,0
2016-08-02T01:48:41.241Z,0
2016-08-02T01:49:40.591Z,0
2016-08-02T01:50:41.934Z,0
2016-08-02T01:51:41.926Z,0
2016-08-02T01:52:41.193Z,0
2016-08-02T01:53:41.192Z,0
2016-08-02T01:54:41.167Z,0
2016-08-02T01:55:40.431Z,0
2016-08-02T01:56:41.126Z,0
2016-08-02T01:57:41.833Z,0
2016-08-02T01:58:41.813Z,0
2016-08-02T01:59:41.825Z,0
2016-08-02T02:00:41.779Z,0
2016-08-02T02:01:41.781Z,0
2016-08-02T02:02:41.114Z,0
2016-08-02T02:03:41.742Z,0
2016-08-02T02:04:41.020Z,0
2016-08-02T02:05:41.769Z,0
2016-08-02T02:06:40.998Z,0
2016-08-02T02:07:40.971Z,0
2016-08-02T02:08:40.949Z,0
2016-08-02T02:09:41.683Z,0
2016-08-02T02:10:41.660Z,0
2016-08-02T02:11:40.207Z,0
2016-08-02T02:12:41.631Z,0
2016-08-02T02:13:41.614Z,0
2016-08-02T02:14:41.601Z,0
2016-08-02T02:15:40.867Z,0
2016-08-02T02:16:41.583Z,0
2016-08-02T02:17:41.538Z,0
2016-08-02T02:18:41.550Z,0
2016-08-02T02:19:41.518Z,0
2016-08-02T02:20:40.779Z,0
2016-08-02T02:21:41.479Z,0
2016-08-02T02:22:41.490Z,0
2016-08-02T02:23:39.314Z,0
2016-08-02T02:24:41.450Z,0
2016-08-02T02:25:41.442Z,0
2016-08-02T02:26:41.425Z,0
2016-08-02T02:27:41.396Z,0
2016-08-02T02:28:41.393Z,0
2016-08-02T02:29:41.371Z,0
2016-08-02T02:30:40.655Z,0
2016-08-02T02:31:40.620Z,0
2016-08-02T02:32:40.678Z,0
2016-08-02T02:33:41.332Z,0
2016-08-02T02:34:41.298Z,0
2016-08-02T02:35:41.298Z,0
2016-08-02T02:36:39.920Z,0
2016-08-02T02:37:40.561Z,0
2016-08-02T02:38:41.300Z,0
2016-08-02T02:39:41.246Z,0
2016-08-02T02:40:40.556Z,0
2016-08-02T02:41:40.478Z,0
2016-08-02T02:42:40.540Z,0
2016-08-02T02:43:40.460Z,0
2016-08-02T02:44:41.238Z,0
2016-08-02T02:45:41.151Z,0
2016-08-02T02:46:41.171Z,0
2016-08-02T02:47:41.099Z,0
2016-08-02T02:48:41.158Z,0
2016-08-02T02:49:41.094Z,0
2016-08-02T02:50:41.091Z,0
2016-08-02T02:51:41.065Z,0
2016-08-02T02:52:41.090Z,0
2016-08-02T02:53:40.310Z,0
2016-08-02T02:54:40.296Z,0
2016-08-02T02:55:40.290Z,0
2016-08-02T02:56:40.310Z,0
2016-08-02T02:57:40.981Z,0
2016-08-02T02:58:40.971Z,0
2016-08-02T02:59:40.240Z,0
2016-08-02T03:00:40.972Z,0
2016-08-02T03:01:39.483Z,0
2016-08-02T03:02:40.217Z,0
2016-08-02T03:03:40.921Z,0
2016-08-02T03:04:40.867Z,0
2016-08-02T03:05:39.428Z,0
2016-08-02T03:06:40.840Z,0
2016-08-02T03:07:40.809Z,0
2016-08-02T03:08:40.811Z,0
2016-08-02T03:09:40.780Z,0
2016-08-02T03:10:40.772Z,0
2016-08-02T03:11:40.765Z,0
2016-08-02T03:12:40.771Z,0
2016-08-02T03:13:40.735Z,0
2016-08-02T03:14:40.728Z,0
2016-08-02T03:15:39.397Z,0
2016-08-02T03:16:40.697Z,0
2016-08-02T03:17:40.680Z,0
2016-08-02T03:18:40.012Z,0
2016-08-02T03:19:40.651Z,0
2016-08-02T03:20:40.638Z,0
2016-08-02T03:21:40.622Z,0
2016-08-02T03:22:40.811Z,0
2016-08-02T03:23:39.154Z,0
2016-08-02T03:24:40.572Z,4
2016-08-02T03:25:39.115Z,4
2016-08-02T03:26:40.541Z,4
2016-08-02T03:27:40.538Z,0
2016-08-02T03:28:40.516Z,0
2016-08-02T03:29:40.490Z,0
2016-08-02T03:30:39.764Z,0
2016-08-02T03:31:39.759Z,4
2016-08-02T03:32:39.740Z,4
2016-08-02T03:33:39.711Z,4
2016-08-02T03:34:39.718Z,4
2016-08-02T03:35:39.702Z,4
2016-08-02T03:36:39.738Z,0
2016-08-02T03:37:40.391Z,4
2016-08-02T03:38:40.391Z,4
2016-08-02T03:39:40.367Z,4
2016-08-02T03:40:40.379Z,4
2016-08-02T03:41:39.629Z,8
2016-08-02T03:42:40.310Z,8
2016-08-02T03:43:40.296Z,8
2016-08-02T03:44:39.570Z,12
2016-08-02T03:45:40.273Z,8
2016-08-02T03:46:40.255Z,12
2016-08-02T03:47:40.233Z,12
2016-08-02T03:48:39.497Z,12
2016-08-02T03:49:39.487Z,16
2016-08-02T03:50:40.203Z,16
2016-08-02T03:51:40.197Z,16
2016-08-02T03:52:39.456Z,16
2016-08-02T03:53:40.156Z,20
2016-08-02T03:54:40.128Z,24
2016-08-02T03:55:40.100Z,24
2016-08-02T03:56:40.128Z,24
2016-08-02T03:57:40.100Z,24
2016-08-02T03:58:40.098Z,32
2016-08-02T03:59:40.078Z,32
2016-08-02T04:00:39.337Z,32
2016-08-02T04:01:39.316Z,32
2016-08-02T04:02:40.019Z,36
2016-08-02T04:03:40.010Z,44
2016-08-02T04:04:39.991Z,48
2016-08-02T04:05:39.968Z,48
2016-08-02T04:06:39.235Z,48
2016-08-02T04:07:39.224Z,48
2016-08-02T04:08:39.938Z,52
2016-08-02T04:09:39.930Z,56
2016-08-02T04:10:39.911Z,52
2016-08-02T04:11:39.888Z,52
2016-08-02T04:12:39.886Z,56
2016-08-02T04:13:39.148Z,60
2016-08-02T04:14:39.865Z,56
2016-08-02T04:15:39.876Z,60
2016-08-02T04:16:39.814Z,64
2016-08-02T04:17:39.796Z,64
2016-08-02T04:18:39.771Z,64
2016-08-02T04:19:39.759Z,60
2016-08-02T04:20:39.780Z,64
2016-08-02T04:21:39.027Z,64
2016-08-02T04:22:38.995Z,72
2016-08-02T04:23:39.059Z,76
2016-08-02T04:24:39.692Z,72
2016-08-02T04:25:38.968Z,76
2016-08-02T04:26:39.680Z,76
2016-08-02T04:27:39.656Z,80
2016-08-02T04:28:39.645Z,84
2016-08-02T04:29:38.922Z,80
2016-08-02T04:30:39.618Z,84
2016-08-02T04:31:38.970Z,80
2016-08-02T04:32:39.571Z,80
2016-08-02T04:33:38.867Z,80
2016-08-02T04:34:38.824Z,84
2016-08-02T04:35:38.837Z,88
2016-08-02T04:36:39.540Z,96
2016-08-02T04:37:39.527Z,104
2016-08-02T04:38:38.774Z,108
2016-08-02T04:39:38.776Z,108
2016-08-02T04:40:38.751Z,108
2016-08-02T04:41:39.481Z,108
2016-08-02T04:42:39.441Z,116
2016-08-02T04:43:39.538Z,124
2016-08-02T04:44:39.410Z,136
2016-08-02T04:45:39.447Z,160
2016-08-02T04:46:39.386Z,180
2016-08-02T04:47:39.409Z,180
2016-08-02T04:48:39.361Z,176
2016-08-02T04:49:37.961Z,160
2016-08-02T04:50:39.348Z,140
2016-08-02T04:51:39.339Z,152
2016-08-02T04:52:38.571Z,160
2016-08-02T04:53:38.623Z,156
2016-08-02T04:54:39.262Z,148
2016-08-02T04:55:39.244Z,144
2016-08-02T04:56:38.534Z,140
2016-08-02T04:57:37.791Z,128
2016-08-02T04:58:39.203Z,120
2016-08-02T04:59:39.277Z,120
2016-08-02T05:00:39.174Z,120
2016-08-02T05:01:38.449Z,124
2016-08-02T05:02:39.144Z,132
2016-08-02T05:03:39.136Z,144
2016-08-02T05:04:38.393Z,156
2016-08-02T05:05:39.157Z,160
2016-08-02T05:06:38.403Z,172
2016-08-02T05:07:39.090Z,188
2016-08-02T05:08:39.078Z,204
2016-08-02T05:09:38.328Z,224
2016-08-02T05:10:36.890Z,256
2016-08-02T05:11:37.570Z,284
2016-08-02T05:12:39.011Z,312
2016-08-02T05:13:38.998Z,316
2016-08-02T05:14:38.978Z,284
2016-08-02T05:15:39.000Z,256
2016-08-02T05:16:37.511Z,244
2016-08-02T05:17:38.211Z,240
2016-08-02T05:18:38.915Z,232
2016-08-02T05:19:36.827Z,232
2016-08-02T05:20:38.876Z,252
2016-08-02T05:21:38.883Z,296
2016-08-02T05:22:38.851Z,336
2016-08-02T05:23:38.881Z,376
2016-08-02T05:24:38.106Z,424
2016-08-02T05:25:38.165Z,500
2016-08-02T05:26:37.369Z,572
2016-08-02T05:27:38.077Z,592
2016-08-02T05:28:38.757Z,588
2016-08-02T05:29:38.731Z,540
2016-08-02T05:30:38.726Z,508
2016-08-02T05:31:38.776Z,508
2016-08-02T05:32:38.061Z,544
2016-08-02T05:33:38.711Z,540
2016-08-02T05:34:38.670Z,504
2016-08-02T05:35:37.939Z,460
2016-08-02T05:36:37.967Z,448
2016-08-02T05:37:37.920Z,472
2016-08-02T05:38:37.191Z,504
2016-08-02T05:39:37.171Z,524
2016-08-02T05:40:38.572Z,524
2016-08-02T05:41:37.850Z,520
2016-08-02T05:42:37.837Z,520
2016-08-02T05:43:38.536Z,532
2016-08-02T05:44:38.522Z,560
2016-08-02T05:45:38.505Z,572
2016-08-02T05:46:38.492Z,568
2016-08-02T05:47:38.481Z,568
2016-08-02T05:48:38.469Z,600
2016-08-02T05:49:38.452Z,656
2016-08-02T05:50:38.431Z,744
2016-08-02T05:51:38.421Z,840
2016-08-02T05:52:37.752Z,920
2016-08-02T05:53:37.679Z,944
2016-08-02T05:54:38.381Z,968
2016-08-02T05:55:37.660Z,956
2016-08-02T05:56:38.357Z,964
2016-08-02T05:57:37.635Z,1060
2016-08-02T05:58:37.619Z,1184
2016-08-02T05:59:37.599Z,1260
2016-08-02T06:00:37.572Z,1244
2016-08-02T06:01:37.565Z,1140
2016-08-02T06:02:38.256Z,1060
2016-08-02T06:03:38.252Z,1092
2016-08-02T06:04:38.226Z,1120
2016-08-02T06:05:38.220Z,1164
2016-08-02T06:06:38.227Z,1184
2016-08-02T06:07:38.186Z,1144
2016-08-02T06:08:38.177Z,1052
2016-08-02T06:09:37.095Z,968
2016-08-02T06:10:38.219Z,916
2016-08-02T06:11:36.698Z,904
2016-08-02T06:12:37.429Z,824
2016-08-02T06:13:38.133Z,712
2016-08-02T06:14:38.163Z,616
2016-08-02T06:15:38.080Z,548
2016-08-02T06:16:37.344Z,532
2016-08-02T06:17:36.645Z,548
2016-08-02T06:18:37.401Z,576
2016-08-02T06:19:37.306Z,596
2016-08-02T06:20:36.578Z,612
2016-08-02T06:21:36.563Z,612
2016-08-02T06:22:37.327Z,588
2016-08-02T06:23:37.980Z,556
2016-08-02T06:24:36.645Z,536
2016-08-02T06:25:37.223Z,516
2016-08-02T06:26:37.263Z,508
2016-08-02T06:27:37.894Z,508
2016-08-02T06:28:37.192Z,524
2016-08-02T06:29:37.877Z,548
2016-08-02T06:30:37.919Z,608
2016-08-02T06:31:37.864Z,620
2016-08-02T06:32:37.903Z,624
2016-08-02T06:33:37.820Z,664
2016-08-02T06:34:37.832Z,736
2016-08-02T06:35:37.810Z,784
2016-08-02T06:36:37.090Z,768
2016-08-02T06:37:37.049Z,752
2016-08-02T06:38:37.781Z,756
2016-08-02T06:40:38.047Z,796
2016-08-02T06:41:36.981Z,888
2016-08-02T06:42:37.691Z,1032
2016-08-02T06:43:37.688Z,1164
2016-08-02T06:44:37.667Z,1292
2016-08-02T06:45:36.939Z,1544
2016-08-02T06:46:36.917Z,1712
2016-08-02T06:47:36.260Z,1792
2016-08-02T06:48:36.900Z,1776
2016-08-02T06:49:37.588Z,1784
2016-08-02T06:50:36.139Z,1760
2016-08-02T06:51:37.560Z,1664
2016-08-02T06:52:36.110Z,1524
2016-08-02T06:53:37.525Z,1520
2016-08-02T06:55:37.495Z,1624
2016-08-02T06:56:36.769Z,1696
2016-08-02T06:57:37.461Z,1708
2016-08-02T06:58:37.467Z,1684
2016-08-02T06:59:36.798Z,1596
2016-08-02T07:00:36.730Z,1500
2016-08-02T07:01:36.692Z,1488
2016-08-02T07:02:37.401Z,1480
2016-08-02T07:03:36.678Z,1512
2016-08-02T07:04:37.395Z,1596
2016-08-02T07:05:37.363Z,1684
2016-08-02T07:06:37.363Z,1696
2016-08-02T07:07:36.609Z,1680
2016-08-02T07:08:37.331Z,1648
2016-08-02T07:10:36.578Z,1728
2016-08-02T07:11:36.560Z,1840
2016-08-02T07:12:37.322Z,1880
2016-08-02T07:13:37.251Z,1788
2016-08-02T07:14:37.289Z,1660
2016-08-02T07:15:36.521Z,1564
2016-08-02T07:16:37.211Z,1500
2016-08-02T07:17:36.471Z,1504
2016-08-02T07:18:37.220Z,1476
2016-08-02T07:19:37.145Z,1420
2016-08-02T07:20:37.158Z,1320
2016-08-02T07:21:35.694Z,1248
2016-08-02T07:22:36.415Z,1216
2016-08-02T07:23:36.384Z,1252
2016-08-02T07:24:36.381Z,1320
2016-08-02T07:25:36.370Z,1416
2016-08-02T07:26:37.082Z,1524
2016-08-02T07:27:37.055Z,1636
2016-08-02T07:28:35.641Z,1828
2016-08-02T07:29:37.101Z,2004
2016-08-02T07:30:37.017Z,2056
2016-08-02T07:31:36.350Z,2020
2016-08-02T07:32:37.009Z,1952
2016-08-02T07:33:36.970Z,1648
2016-08-02T07:34:36.960Z,1388
2016-08-02T07:35:35.512Z,1336
2016-08-02T07:36:36.921Z,1452
2016-08-02T07:37:35.462Z,1664
2016-08-02T07:38:36.891Z,1816
2016-08-02T07:39:35.461Z,2020
2016-08-02T07:40:36.862Z,2292
2016-08-02T07:41:36.134Z,2384
2016-08-02T07:42:36.843Z,2264
2016-08-02T07:43:36.839Z,2080
2016-08-02T07:44:36.099Z,1928
2016-08-02T07:45:36.832Z,1756
2016-08-02T07:46:36.064Z,1564
2016-08-02T07:47:36.775Z,1348
2016-08-02T07:48:36.048Z,1164
2016-08-02T07:49:36.750Z,1148
2016-08-02T07:50:36.717Z,1216
2016-08-02T07:51:35.309Z,1280
2016-08-02T07:52:36.702Z,1448
2016-08-02T07:53:36.751Z,1572
2016-08-02T07:54:35.956Z,1672
2016-08-02T07:55:36.698Z,1812
2016-08-02T07:56:35.919Z,1908
2016-08-02T07:57:35.909Z,1900
2016-08-02T07:58:36.614Z,1840
2016-08-02T07:59:35.168Z,1840
2016-08-02T08:00:35.883Z,1872
2016-08-02T08:01:36.592Z,1968
2016-08-02T08:02:35.839Z,2184
2016-08-02T08:03:36.532Z,2480
2016-08-02T08:04:36.522Z,2600
2016-08-02T08:05:36.509Z,2656
2016-08-02T08:06:34.362Z,2708
2016-08-02T08:07:35.770Z,2664
2016-08-02T08:08:36.479Z,2636
2016-08-02T08:09:35.017Z,2672
2016-08-02T08:10:35.722Z,2696
2016-08-02T08:11:34.993Z,2828
2016-08-02T08:12:35.703Z,2916
2016-08-02T08:13:36.413Z,2776
2016-08-02T08:14:34.962Z,2584
2016-08-02T08:15:36.430Z,2332
2016-08-02T08:16:35.791Z,2152
2016-08-02T08:17:35.629Z,1856
2016-08-02T08:18:36.350Z,1568
2016-08-02T08:19:34.169Z,1364
2016-08-02T08:20:36.299Z,1204
2016-08-02T08:21:36.419Z,1104
2016-08-02T08:22:35.544Z,1020
2016-08-02T08:23:35.596Z,968
2016-08-02T08:24:35.532Z,920
2016-08-02T08:25:34.806Z,908
2016-08-02T08:26:35.479Z,968
2016-08-02T08:27:35.482Z,1108
2016-08-02T08:28:35.475Z,1268
2016-08-02T08:29:35.463Z,1424
2016-08-02T08:30:35.427Z,1564
2016-08-02T08:31:34.699Z,1684
2016-08-02T08:32:36.130Z,1628
2016-08-02T08:33:36.136Z,1652
2016-08-02T08:34:36.091Z,1648
2016-08-02T08:35:34.639Z,1640
2016-08-02T08:36:34.651Z,1724
2016-08-02T08:37:36.063Z,1820
2016-08-02T08:38:36.054Z,1976
2016-08-02T08:39:36.030Z,2164
2016-08-02T08:40:35.279Z,2324
2016-08-02T08:41:35.266Z,2428
2016-08-02T08:42:35.981Z,2536
2016-08-02T08:43:35.239Z,2824
2016-08-02T08:44:35.950Z,3424
2016-08-02T08:45:35.933Z,4556
2016-08-02T08:46:34.531Z,5680
2016-08-02T08:47:35.910Z,6608
2016-08-02T08:48:35.890Z,6872
2016-08-02T08:49:35.159Z,6772
2016-08-02T08:50:35.160Z,6640
2016-08-02T08:51:35.128Z,6776
2016-08-02T08:52:35.128Z,7088
2016-08-02T08:53:35.122Z,7680
2016-08-02T08:54:35.801Z,8472
2016-08-02T08:55:35.767Z,8476
2016-08-02T08:56:35.778Z,7992
2016-08-02T08:57:34.347Z,7412
2016-08-02T08:58:35.750Z,7376
2016-08-02T08:59:34.993Z,7624
2016-08-02T09:00:34.300Z,8204
2016-08-02T09:01:35.721Z,8484
2016-08-02T09:02:34.278Z,7092
2016-08-02T09:03:34.246Z,6432
2016-08-02T09:04:35.692Z,6060
2016-08-02T09:05:34.938Z,6212
2016-08-02T09:06:34.294Z,6284
2016-08-02T09:07:33.590Z,5944
2016-08-02T09:08:34.906Z,5448
2016-08-02T09:09:35.621Z,5056
2016-08-02T09:10:34.268Z,4812
2016-08-02T09:11:34.870Z,4648
2016-08-02T09:12:34.922Z,4568
2016-08-02T09:13:35.549Z,4508
2016-08-02T09:14:34.932Z,4524
2016-08-02T09:15:34.087Z,4652
2016-08-02T09:16:35.632Z,4836
2016-08-02T09:17:34.779Z,4984
2016-08-02T09:18:34.121Z,4936
2016-08-02T09:19:34.752Z,4772
2016-08-02T09:20:34.817Z,4540
2016-08-02T09:21:35.440Z,4276
2016-08-02T09:22:34.761Z,4156
2016-08-02T09:23:34.697Z,4276
2016-08-02T09:24:34.709Z,4560
2016-08-02T09:25:35.400Z,4872
2016-08-02T09:26:34.679Z,5176
2016-08-02T09:27:34.647Z,5620
2016-08-02T09:28:34.624Z,5896
2016-08-02T09:29:35.335Z,5908
2016-08-02T09:30:33.898Z,5492
2016-08-02T09:31:34.596Z,5172
2016-08-02T09:32:35.369Z,4944
2016-08-02T09:33:34.568Z,5108
2016-08-02T09:34:35.289Z,5616
2016-08-02T09:35:34.579Z,5920
2016-08-02T09:36:35.238Z,5844
2016-08-02T09:37:35.238Z,5480
2016-08-02T09:38:33.853Z,5260
2016-08-02T09:39:34.490Z,5284
2016-08-02T09:40:34.485Z,5496
2016-08-02T09:41:35.171Z,5504
2016-08-02T09:42:33.018Z,5328
2016-08-02T09:43:34.430Z,5580
2016-08-02T09:44:33.700Z,5780
2016-08-02T09:45:35.123Z,5400
2016-08-02T09:46:35.120Z,5088
2016-08-02T09:47:35.101Z,4512
2016-08-02T09:48:35.088Z,3864
2016-08-02T09:49:34.432Z,3632
2016-08-02T09:50:35.061Z,3580
2016-08-02T09:51:35.047Z,3536
2016-08-02T09:52:35.045Z,3588
2016-08-02T09:53:33.592Z,3544
2016-08-02T09:54:33.577Z,3340
2016-08-02T09:55:34.348Z,3112
2016-08-02T09:56:34.999Z,2992
2016-08-02T09:57:34.982Z,2792
2016-08-02T09:58:34.976Z,2552
2016-08-02T09:59:34.953Z,2380
2016-08-02T10:00:34.211Z,2260
2016-08-02T10:01:34.204Z,2124
2016-08-02T10:02:34.201Z,1880
2016-08-02T10:03:34.902Z,1892
2016-08-02T10:04:34.154Z,2012
2016-08-02T10:05:33.521Z,2096
2016-08-02T10:06:33.435Z,2232
2016-08-02T10:07:34.827Z,2344
2016-08-02T10:08:34.122Z,2444
2016-08-02T10:09:32.674Z,2376
2016-08-02T10:10:33.658Z,2216
2016-08-02T10:11:34.790Z,2104
2016-08-02T10:12:34.788Z,2216
2016-08-02T10:13:34.044Z,2172
2016-08-02T10:14:32.623Z,1972
2016-08-02T10:15:34.990Z,1720
2016-08-02T10:16:34.762Z,1576
2016-08-02T10:17:33.980Z,1576
2016-08-02T10:18:33.970Z,1592
2016-08-02T10:19:34.688Z,1596
2016-08-02T10:20:34.672Z,1520
2016-08-02T10:21:33.232Z,1512
2016-08-02T10:22:33.922Z,1484
2016-08-02T10:23:33.927Z,1352
2016-08-02T10:24:34.608Z,1272
2016-08-02T10:25:33.442Z,1248
2016-08-02T10:26:33.866Z,1284
2016-08-02T10:27:33.890Z,1196
2016-08-02T10:28:34.563Z,1152
2016-08-02T10:29:34.543Z,1180
2016-08-02T10:30:33.815Z,1264
2016-08-02T10:31:33.793Z,1280
2016-08-02T10:32:33.791Z,1216
2016-08-02T10:33:33.769Z,1128
2016-08-02T10:34:33.039Z,1092
2016-08-02T10:35:34.524Z,1124
2016-08-02T10:36:34.443Z,1192
2016-08-02T10:37:34.433Z,1272
2016-08-02T10:38:32.993Z,1268
2016-08-02T10:39:34.428Z,1280
2016-08-02T10:40:33.013Z,1328
2016-08-02T10:41:33.690Z,1448
2016-08-02T10:42:33.647Z,1656
2016-08-02T10:43:33.626Z,1904
2016-08-02T10:44:33.633Z,2064
2016-08-02T10:45:34.362Z,2336
2016-08-02T10:46:32.876Z,2556
2016-08-02T10:47:34.333Z,3212
2016-08-02T10:48:34.271Z,4132
2016-08-02T10:49:33.543Z,5220
2016-08-02T10:50:33.545Z,6828
2016-08-02T10:51:34.318Z,8856
2016-08-02T10:52:33.519Z,10644
2016-08-02T10:53:32.773Z,12012
2016-08-02T10:54:33.485Z,12452
2016-08-02T10:56:34.168Z,12984
2016-08-02T10:57:33.442Z,12932
2016-08-02T10:58:33.423Z,12808
2016-08-02T10:59:34.137Z,13892
2016-08-02T11:00:32.734Z,14144
2016-08-02T11:01:32.674Z,13396
2016-08-02T11:02:33.372Z,11312
2016-08-02T11:03:33.372Z,9252
2016-08-02T11:04:34.058Z,7008
2016-08-02T11:05:34.159Z,5396
2016-08-02T11:06:32.621Z,4084
2016-08-02T11:07:33.300Z,3128
2016-08-02T11:08:34.010Z,2616
2016-08-02T11:09:33.299Z,2352
2016-08-02T11:11:33.259Z,1748
2016-08-02T11:12:33.263Z,1492
2016-08-02T11:13:33.229Z,1232
2016-08-02T11:14:33.252Z,1084
2016-08-02T11:15:33.210Z,1000
2016-08-02T11:16:33.201Z,952
2016-08-02T11:17:33.910Z,984
2016-08-02T11:18:32.453Z,1116
2016-08-02T11:19:33.151Z,1300
2016-08-02T11:20:32.439Z,1556
2016-08-02T11:21:33.853Z,1964
2016-08-02T11:22:33.836Z,2640
2016-08-02T11:23:33.127Z,3788
2016-08-02T11:24:32.391Z,5452
2016-08-02T11:26:33.792Z,7968
2016-08-02T11:27:33.063Z,8484
2016-08-02T11:28:33.760Z,6920
2016-08-02T11:29:33.757Z,5340
2016-08-02T11:30:33.729Z,4792
2016-08-02T11:31:33.014Z,4680
2016-08-02T11:32:32.361Z,4800
2016-08-02T11:33:32.972Z,4952
2016-08-02T11:34:32.968Z,5644
2016-08-02T11:35:32.986Z,6128
2016-08-02T11:36:33.681Z,6864
2016-08-02T11:37:33.650Z,7312
2016-08-02T11:38:32.199Z,9132
2016-08-02T11:39:33.629Z,8708
2016-08-02T11:41:32.923Z,8752
2016-08-02T11:42:32.889Z,8512
2016-08-02T11:43:32.876Z,7748
2016-08-02T11:44:32.923Z,7032
2016-08-02T11:45:32.119Z,6264
2016-08-02T11:46:32.840Z,5372
2016-08-02T11:47:32.822Z,5132
2016-08-02T11:48:33.569Z,4724
2016-08-02T11:49:31.358Z,4416
2016-08-02T11:50:33.510Z,4624
2016-08-02T11:51:32.771Z,5304
2016-08-02T11:52:32.813Z,6048
2016-08-02T11:53:33.463Z,5436
2016-08-02T11:54:33.569Z,4640
2016-08-02T11:55:32.704Z,3892
2016-08-02T11:56:33.463Z,3140
2016-08-02T11:57:31.970Z,2584
2016-08-02T11:58:32.693Z,2044
2016-08-02T11:59:33.368Z,1924
2016-08-02T12:00:31.949Z,2016
2016-08-02T12:01:32.657Z,2028
2016-08-02T12:02:33.395Z,1924
2016-08-02T12:03:31.917Z,1660
2016-08-02T12:04:33.318Z,1684
2016-08-02T12:05:31.877Z,1644
2016-08-02T12:06:33.313Z,1616
2016-08-02T12:07:33.264Z,1768
2016-08-02T12:08:33.273Z,2060
2016-08-02T12:09:32.542Z,2440
2016-08-02T12:10:32.521Z,2728
2016-08-02T12:11:32.533Z,2980
2016-08-02T12:12:31.786Z,3276
2016-08-02T12:13:33.210Z,3636
2016-08-02T12:14:33.189Z,4068
2016-08-02T12:15:33.189Z,4532
2016-08-02T12:16:33.189Z,5032
2016-08-02T12:17:32.450Z,5408
2016-08-02T12:18:32.422Z,5576
2016-08-02T12:19:32.411Z,5744
2016-08-02T12:20:33.108Z,5880
2016-08-02T12:21:33.127Z,6084
2016-08-02T12:22:33.151Z,6092
2016-08-02T12:23:33.073Z,5600
2016-08-02T12:24:31.628Z,4912
2016-08-02T12:25:32.400Z,5044
2016-08-02T12:26:33.085Z,5292
2016-08-02T12:27:33.031Z,5256
2016-08-02T12:28:33.021Z,5896
2016-08-02T12:29:32.999Z,6212
2016-08-02T12:30:33.002Z,5852
2016-08-02T12:31:32.264Z,5484
2016-08-02T12:32:32.259Z,5400
2016-08-02T12:33:32.302Z,5032
2016-08-02T12:34:32.231Z,4708
2016-08-02T12:35:32.215Z,4772
2016-08-02T12:36:32.208Z,5064
2016-08-02T12:37:32.890Z,5540
2016-08-02T12:38:32.191Z,5680
2016-08-02T12:39:32.887Z,5708
2016-08-02T12:40:31.433Z,5528
2016-08-02T12:41:32.127Z,5168
2016-08-02T12:42:32.869Z,4900
2016-08-02T12:43:30.795Z,5052
2016-08-02T12:44:32.095Z,5172
2016-08-02T12:45:32.798Z,5324
2016-08-02T12:46:32.076Z,5652
2016-08-02T12:47:32.793Z,5876
2016-08-02T12:48:32.766Z,5860
2016-08-02T12:49:32.188Z,5748
2016-08-02T12:50:32.028Z,5800
2016-08-02T12:51:32.734Z,6024
2016-08-02T12:52:32.712Z,5956
2016-08-02T12:53:32.700Z,5712
2016-08-02T12:54:31.972Z,5236
2016-08-02T12:55:31.958Z,4876
2016-08-02T12:56:32.685Z,5004
2016-08-02T12:57:31.931Z,5172
2016-08-02T12:58:31.931Z,5728
2016-08-02T12:59:32.635Z,6208
2016-08-02T13:00:31.911Z,6444
2016-08-02T13:01:31.229Z,6416
2016-08-02T13:02:31.862Z,6508
2016-08-02T13:03:32.580Z,6632
2016-08-02T13:04:32.590Z,6880
2016-08-02T13:05:31.914Z,6640
2016-08-02T13:06:32.540Z,6556
2016-08-02T13:07:31.898Z,6904
2016-08-02T13:08:31.794Z,7204
2016-08-02T13:09:32.628Z,7224
2016-08-02T13:10:31.793Z,6584
2016-08-02T13:11:31.761Z,6356
2016-08-02T13:12:32.481Z,6172
2016-08-02T13:13:32.482Z,5916
2016-08-02T13:14:32.467Z,5596
2016-08-02T13:15:32.473Z,5768
2016-08-02T13:16:31.700Z,5936
2016-08-02T13:17:32.421Z,5508
2016-08-02T13:18:32.400Z,5420
2016-08-02T13:19:32.469Z,4876
2016-08-02T13:20:31.671Z,4940
2016-08-02T13:21:31.636Z,5148
2016-08-02T13:22:32.349Z,4956
2016-08-02T13:23:32.389Z,5228
2016-08-02T13:24:30.912Z,5304
2016-08-02T13:25:31.592Z,4460
2016-08-02T13:26:30.898Z,3928
2016-08-02T13:27:31.577Z,4188
2016-08-02T13:28:31.645Z,4616
2016-08-02T13:29:32.262Z,4604
2016-08-02T13:30:31.535Z,4380
2016-08-02T13:31:31.527Z,3492
2016-08-02T13:32:31.519Z,2864
2016-08-02T13:33:30.802Z,2484
2016-08-02T13:34:31.511Z,2056
2016-08-02T13:35:32.216Z,1900
2016-08-02T13:36:31.471Z,1924
2016-08-02T13:37:32.171Z,1852
2016-08-02T13:38:31.450Z,1344
2016-08-02T13:39:32.156Z,1144
2016-08-02T13:40:32.150Z,1012
2016-08-02T13:41:31.410Z,960
2016-08-02T13:42:31.422Z,992
2016-08-02T13:43:32.107Z,1136
2016-08-02T13:44:32.098Z,1280
2016-08-02T13:45:31.372Z,1368
2016-08-02T13:46:32.092Z,1536
2016-08-02T13:47:31.352Z,1808
2016-08-02T13:48:31.323Z,2228
2016-08-02T13:49:32.041Z,2936
2016-08-02T13:50:32.032Z,3812
2016-08-02T13:51:31.290Z,4884
2016-08-02T13:52:31.285Z,5996
2016-08-02T13:53:31.279Z,6672
2016-08-02T13:54:31.276Z,6856
2016-08-02T13:55:30.518Z,6820
2016-08-02T13:56:30.791Z,6668